Time;durP1;ratioP1;P1;durP2;ratioP2;P2;SDS_P1;SDS_P2;PMS_P1;PMS_P2;Temp;Humidity;BMP_temperature;BMP_pressure;BME280_temperature;BME280_humidity;BME280_pressure;Samples;Min_cycle;Max_cycle;Signal;HPM_P1;HPM_P2
2024/04/17 00:01:07;;;;;;;9.40;2.30;;;10.60;1.00;;;;;;5232761;22;20292;-91
2024/04/17 00:03:25;;;;;;;11.57;2.50;;;10.60;1.00;;;;;;5197615;22;20370;-91
2024/04/17 00:05:42;;;;;;;12.37;2.70;;;10.60;1.00;;;;;;5233016;22;20347;-91
2024/04/17 00:08:01;;;;;;;11.20;2.10;;;10.60;1.00;;;;;;5232424;22;20279;-91
2024/04/17 00:10:19;;;;;;;14.00;2.43;;;10.50;1.00;;;;;;5232507;22;20271;-90
2024/04/17 00:12:36;;;;;;;13.57;2.70;;;10.60;1.00;;;;;;5231948;22;20263;-90
2024/04/17 00:14:54;;;;;;;17.33;2.40;;;10.50;1.00;;;;;;5196315;22;20809;-91
2024/04/17 00:17:11;;;;;;;12.43;2.40;;;10.50;1.00;;;;;;5269683;22;20650;-91
2024/04/17 00:19:29;;;;;;;8.17;2.37;;;10.50;1.00;;;;;;5231935;22;20275;-91
2024/04/17 00:21:46;;;;;;;13.13;2.83;;;10.50;1.00;;;;;;5231738;22;20278;-91
2024/04/17 00:24:03;;;;;;;10.60;2.53;;;10.50;1.00;;;;;;5268396;22;20269;-91
2024/04/17 00:26:21;;;;;;;10.60;2.40;;;10.50;1.00;;;;;;5268801;22;20304;-90
2024/04/17 00:28:39;;;;;;;9.90;2.50;;;10.50;1.00;;;;;;5269110;22;20270;-91
2024/04/17 00:30:56;;;;;;;10.33;2.57;;;10.50;1.00;;;;;;5231561;22;20313;-91
2024/04/17 00:33:16;;;;;;;15.90;3.00;;;10.50;1.00;;;;;;5268786;22;20329;-91
2024/04/17 00:35:33;;;;;;;9.03;2.37;;;10.50;1.00;;;;;;5268694;22;20340;-91
2024/04/17 00:37:51;;;;;;;12.83;2.57;;;10.50;1.00;;;;;;5230763;22;20340;-91
2024/04/17 00:40:09;;;;;;;13.27;2.27;;;10.50;1.00;;;;;;5195842;22;20271;-90
2024/04/17 00:42:26;;;;;;;12.70;3.00;;;10.50;1.00;;;;;;5230156;22;20344;-91
2024/04/17 00:44:44;;;;;;;13.47;2.23;;;10.50;1.00;;;;;;5231076;22;20633;-91
2024/04/17 00:47:01;;;;;;;13.63;2.50;;;10.40;1.00;;;;;;5231157;22;20761;-91
2024/04/17 00:49:19;;;;;;;8.63;1.80;;;10.30;1.00;;;;;;5196454;22;20338;-90
2024/04/17 00:51:39;;;;;;;7.73;1.90;;;10.10;1.00;;;;;;5231143;22;20270;-91
2024/04/17 00:53:57;;;;;;;9.97;1.83;;;10.00;1.00;;;;;;5196068;22;20279;-91
2024/04/17 00:56:15;;;;;;;7.90;2.10;;;9.90;1.00;;;;;;5231441;22;20267;-90
2024/04/17 00:58:34;;;;;;;6.80;1.30;;;9.80;1.00;;;;;;5231145;22;20266;-91
2024/04/17 01:00:51;;;;;;;4.60;0.90;;;9.60;1.00;;;;;;5270022;22;20256;-90
2024/04/17 01:03:10;;;;;;;4.53;0.97;;;9.30;1.00;;;;;;5234818;22;20296;-93
2024/04/17 01:05:29;;;;;;;6.87;1.43;;;9.10;1.00;;;;;;5198733;22;20261;-91
2024/04/17 01:07:46;;;;;;;6.03;1.20;;;8.90;1.00;;;;;;5234798;22;20334;-90
2024/04/17 01:10:04;;;;;;;2.27;1.00;;;9.00;1.00;;;;;;5272251;22;20329;-90
2024/04/17 01:12:21;;;;;;;6.63;1.07;;;9.10;1.00;;;;;;5200325;22;20267;-90
2024/04/17 01:14:39;;;;;;;5.80;1.60;;;9.20;1.00;;;;;;5235199;22;20270;-90
2024/04/17 01:16:56;;;;;;;4.83;1.13;;;9.30;1.00;;;;;;5235123;22;20291;-91
2024/04/17 01:19:14;;;;;;;5.40;1.17;;;9.40;1.00;;;;;;5235467;22;20330;-90
2024/04/17 01:21:32;;;;;;;5.23;0.90;;;9.60;1.00;;;;;;5165827;22;20333;-91
2024/04/17 01:23:53;;;;;;;4.37;1.10;;;9.70;1.00;;;;;;5234990;22;20816;-90
2024/04/17 01:26:11;;;;;;;2.13;1.03;;;9.70;1.00;;;;;;5234524;22;20712;-90
2024/04/17 01:28:28;;;;;;;7.03;1.13;;;9.70;1.00;;;;;;5272491;22;20591;-91
2024/04/17 01:30:45;;;;;;;5.77;1.50;;;9.90;1.00;;;;;;5234904;22;20625;-91
2024/04/17 01:33:03;;;;;;;11.50;1.53;;;9.90;1.00;;;;;;5268618;22;20351;-91
2024/04/17 01:35:21;;;;;;;7.00;1.70;;;9.90;1.00;;;;;;5276298;22;20269;-91
2024/04/17 01:37:38;;;;;;;5.43;1.60;;;10.00;1.00;;;;;;5240255;22;20581;-91
2024/04/17 01:39:56;;;;;;;4.23;1.57;;;10.00;1.00;;;;;;5275867;22;20329;-91
2024/04/17 01:42:13;;;;;;;8.03;1.40;;;10.10;1.00;;;;;;5276348;22;20299;-91
2024/04/17 01:44:30;;;;;;;3.20;1.27;;;10.10;1.00;;;;;;5314669;22;20298;-90
2024/04/17 01:46:47;;;;;;;4.90;1.40;;;10.10;1.00;;;;;;5314265;22;20248;-91
2024/04/17 01:49:05;;;;;;;2.90;1.00;;;10.20;1.00;;;;;;5276312;22;20334;-91
2024/04/17 01:51:22;;;;;;;4.57;1.40;;;10.20;1.00;;;;;;5275862;22;20707;-90
2024/04/17 01:53:40;;;;;;;5.57;1.30;;;10.20;1.00;;;;;;5276468;22;20294;-91
2024/04/17 01:55:57;;;;;;;3.00;1.30;;;10.30;1.00;;;;;;5276668;22;20261;-90
2024/04/17 01:58:15;;;;;;;3.93;1.37;;;10.30;1.00;;;;;;5276214;22;20277;-90
2024/04/17 02:00:35;;;;;;;7.57;3.00;;;10.30;1.00;;;;;;5240032;22;20266;-91
2024/04/17 02:02:52;;;;;;;1.60;0.70;;;10.30;1.00;;;;;;5275589;22;20338;-93
2024/04/17 02:05:10;;;;;;;2.97;1.37;;;10.50;1.00;;;;;;5275604;22;20257;-91
2024/04/17 02:07:28;;;;;;;2.60;1.00;;;10.40;1.00;;;;;;5313540;22;20268;-91
2024/04/17 02:09:45;;;;;;;3.53;0.90;;;10.40;1.00;;;;;;5275559;22;20223;-90
2024/04/17 02:12:03;;;;;;;7.47;0.90;;;10.40;1.00;;;;;;5274812;22;20398;-91
2024/04/17 02:14:21;;;;;;;5.03;1.03;;;10.30;1.00;;;;;;5274794;22;20334;-91
2024/04/17 02:16:38;;;;;;;3.90;0.97;;;10.20;1.00;;;;;;5274292;22;20256;-91
2024/04/17 02:18:58;;;;;;;2.10;0.90;;;10.20;1.00;;;;;;5274821;22;20267;-91
2024/04/17 02:21:16;;;;;;;5.90;0.83;;;10.20;1.00;;;;;;5274476;22;20269;-91
2024/04/17 02:23:33;;;;;;;2.17;0.73;;;10.10;1.00;;;;;;5274063;22;20315;-89
2024/04/17 02:25:51;;;;;;;4.10;0.77;;;10.00;1.00;;;;;;5274582;22;20269;-91
2024/04/17 02:28:08;;;;;;;6.57;1.30;;;9.90;1.00;;;;;;5274613;22;20329;-91
2024/04/17 02:30:25;;;;;;;4.80;1.17;;;9.80;1.00;;;;;;5274395;22;20337;-90
2024/04/17 02:32:43;;;;;;;3.27;0.90;;;9.80;1.00;;;;;;5274647;22;20336;-91
2024/04/17 02:35:00;;;;;;;2.27;0.83;;;9.60;1.00;;;;;;5274396;22;20269;-91
2024/04/17 02:37:18;;;;;;;8.23;0.90;;;9.50;1.00;;;;;;5273952;22;20771;-91
2024/04/17 02:39:36;;;;;;;2.80;1.00;;;9.60;1.00;;;;;;5274296;22;20326;-90
2024/04/17 02:41:54;;;;;;;2.53;0.70;;;9.60;1.00;;;;;;5274285;22;20258;-91
2024/04/17 02:44:11;;;;;;;5.20;0.67;;;9.70;1.00;;;;;;5273734;22;20273;-91
2024/04/17 02:46:28;;;;;;;2.83;0.87;;;9.80;1.00;;;;;;5274068;22;20334;-91
2024/04/17 02:48:45;;;;;;;2.10;0.80;;;9.80;1.00;;;;;;5311640;22;20272;-91
2024/04/17 02:51:03;;;;;;;3.47;0.80;;;10.00;1.00;;;;;;5274432;22;20342;-91
2024/04/17 02:53:21;;;;;;;4.20;0.90;;;10.00;1.00;;;;;;5273202;22;20633;-91
2024/04/17 02:55:38;;;;;;;5.13;1.10;;;10.00;1.00;;;;;;5274403;22;20349;-90
2024/04/17 02:57:55;;;;;;;3.60;0.57;;;10.00;1.00;;;;;;5238082;22;20315;-92
2024/04/17 03:00:13;;;;;;;7.63;0.93;;;10.00;1.00;;;;;;5274243;22;20265;-91
2024/04/17 03:02:31;;;;;;;2.87;1.00;;;9.70;1.00;;;;;;5274508;22;20635;-90
2024/04/17 03:04:48;;;;;;;4.37;0.90;;;9.60;1.00;;;;;;5238560;22;20267;-90
2024/04/17 03:07:05;;;;;;;4.93;1.07;;;9.50;1.00;;;;;;5312119;22;20263;-90
2024/04/17 03:09:23;;;;;;;6.60;0.83;;;9.20;1.00;;;;;;5273958;22;20306;-90
2024/04/17 03:11:40;;;;;;;3.80;2.27;;;9.00;1.00;;;;;;5274022;22;20310;-90
2024/04/17 03:13:57;;;;;;;8.93;1.30;;;8.90;1.00;;;;;;5273406;22;20277;-91
2024/04/17 03:16:15;;;;;;;8.13;1.27;;;8.80;1.00;;;;;;5274195;22;20291;-90
2024/04/17 03:18:32;;;;;;;6.10;1.27;;;8.80;1.00;;;;;;5273758;22;20266;-90
2024/04/17 03:20:49;;;;;;;5.87;1.37;;;8.70;1.00;;;;;;5311772;22;20583;-91
2024/04/17 03:23:07;;;;;;;5.50;1.00;;;8.80;1.00;;;;;;5274665;22;20322;-91
2024/04/17 03:25:24;;;;;;;4.23;1.07;;;8.80;1.00;;;;;;5312532;22;20359;-91
2024/04/17 03:27:41;;;;;;;4.17;1.23;;;8.90;1.00;;;;;;5273850;22;20881;-91
2024/04/17 03:30:00;;;;;;;5.00;1.00;;;9.10;1.00;;;;;;5311602;22;20806;-91
2024/04/17 03:32:18;;;;;;;4.43;1.50;;;9.20;1.00;;;;;;5311337;22;20349;-90
2024/04/17 03:34:35;;;;;;;11.80;2.40;;;9.20;1.00;;;;;;5273372;22;20273;-90
2024/04/17 03:36:53;;;;;;;3.43;1.07;;;9.30;1.00;;;;;;5311101;22;20265;-91
2024/04/17 03:39:11;;;;;;;4.73;1.80;;;9.40;1.00;;;;;;5272658;22;20349;-91
2024/04/17 03:41:30;;;;;;;8.43;1.70;;;9.50;1.00;;;;;;5273125;22;20276;-91
2024/04/17 03:43:48;;;;;;;5.33;1.03;;;9.60;1.00;;;;;;5310797;22;20275;-91
2024/04/17 03:46:05;;;;;;;4.30;1.10;;;9.70;1.00;;;;;;5311200;22;20375;-90
2024/04/17 03:48:23;;;;;;;6.97;1.60;;;9.80;1.00;;;;;;5273286;22;20347;-91
2024/04/17 03:50:41;;;;;;;6.87;1.40;;;9.80;1.00;;;;;;5274526;22;20650;-91
2024/04/17 03:52:58;;;;;;;9.80;1.67;;;9.70;1.00;;;;;;5273493;22;20269;-91
2024/04/17 03:55:16;;;;;;;6.93;1.83;;;9.70;1.00;;;;;;5311920;22;20267;-91
2024/04/17 03:57:33;;;;;;;8.83;1.53;;;9.70;1.00;;;;;;5312175;22;20327;-90
2024/04/17 03:59:53;;;;;;;8.53;1.97;;;9.60;1.00;;;;;;5274034;22;20657;-91
2024/04/17 04:02:11;;;;;;;8.30;2.10;;;9.70;1.00;;;;;;5311764;22;20268;-90
2024/04/17 04:04:28;;;;;;;6.53;1.23;;;9.70;1.00;;;;;;5312537;22;20286;-91
2024/04/17 04:06:45;;;;;;;9.03;2.03;;;9.70;1.00;;;;;;5273982;22;20305;-91
2024/04/17 04:09:04;;;;;;;7.40;1.80;;;9.70;1.00;;;;;;5273781;22;20279;-90
2024/04/17 04:11:22;;;;;;;8.93;1.47;;;9.80;1.00;;;;;;5273989;22;20332;-90
2024/04/17 04:13:39;;;;;;;11.37;1.67;;;9.80;1.00;;;;;;5273654;22;20379;-91
2024/04/17 04:15:57;;;;;;;8.93;1.80;;;9.80;1.00;;;;;;5311738;22;20272;-90
2024/04/17 04:18:14;;;;;;;7.60;2.03;;;9.90;1.00;;;;;;5273958;22;20305;-91
2024/04/17 04:20:32;;;;;;;6.37;1.33;;;10.00;1.00;;;;;;5274155;22;20272;-90
2024/04/17 04:22:49;;;;;;;9.07;1.67;;;10.00;1.00;;;;;;5274180;22;20273;-90
2024/04/17 04:25:07;;;;;;;6.53;1.87;;;10.10;1.00;;;;;;5273502;22;20277;-90
2024/04/17 04:27:25;;;;;;;5.50;2.30;;;10.10;1.00;;;;;;5274616;22;20310;-91
2024/04/17 04:29:42;;;;;;;14.37;1.83;;;10.20;1.00;;;;;;5273435;22;20275;-91
2024/04/17 04:31:59;;;;;;;4.13;1.47;;;10.00;1.00;;;;;;5310249;21;20343;-91
2024/04/17 04:34:17;;;;;;;8.57;1.80;;;10.10;1.00;;;;;;5272669;22;20610;-90
2024/04/17 04:36:34;;;;;;;5.30;1.77;;;10.00;1.00;;;;;;5309616;22;20273;-90
2024/04/17 04:38:51;;;;;;;11.47;2.10;;;9.90;1.00;;;;;;5272294;22;20311;-91
2024/04/17 04:41:09;;;;;;;7.10;2.13;;;9.70;1.00;;;;;;5308462;22;20264;-90
2024/04/17 04:43:26;;;;;;;11.37;2.47;;;9.70;1.00;;;;;;5309264;22;20268;-90
2024/04/17 04:45:43;;;;;;;5.67;1.80;;;9.70;1.00;;;;;;5272103;22;20265;-90
2024/04/17 04:48:01;;;;;;;8.37;2.00;;;9.70;1.00;;;;;;5273751;22;20335;-91
2024/04/17 04:50:18;;;;;;;16.50;2.10;;;9.70;1.00;;;;;;5237342;22;20320;-90
2024/04/17 04:52:36;;;;;;;7.70;2.30;;;9.70;1.00;;;;;;5273409;22;20302;-91
2024/04/17 04:54:53;;;;;;;8.70;1.83;;;9.70;1.00;;;;;;5273317;22;20265;-91
2024/04/17 04:57:11;;;;;;;8.00;1.87;;;9.80;1.00;;;;;;5273429;22;20218;-92
2024/04/17 04:59:28;;;;;;;4.67;1.60;;;9.80;1.00;;;;;;5273520;22;20269;-93
2024/04/17 05:01:46;;;;;;;5.63;1.50;;;9.90;1.00;;;;;;5238180;22;20270;-90
2024/04/17 05:04:04;;;;;;;10.43;1.47;;;9.90;1.00;;;;;;5273448;22;20958;-91
2024/04/17 05:06:21;;;;;;;7.13;1.20;;;9.90;1.00;;;;;;5273121;22;20984;-96
2024/04/17 05:08:39;;;;;;;11.00;2.27;;;9.80;1.00;;;;;;5311059;22;20260;-95
2024/04/17 05:10:56;;;;;;;4.93;1.70;;;9.80;1.00;;;;;;5272776;22;20270;-93
2024/04/17 05:13:14;;;;;;;3.83;1.00;;;9.90;1.00;;;;;;5273094;22;20331;-94
2024/04/17 05:15:34;;;;;;;11.57;2.17;;;9.90;1.00;;;;;;5314554;22;20297;-96
2024/04/17 05:17:52;;;;;;;13.13;2.07;;;9.90;1.00;;;;;;5276656;22;20303;-96
2024/04/17 05:20:12;;;;;;;7.30;1.37;;;10.00;1.00;;;;;;5275330;22;20273;-96
2024/04/17 05:22:33;;;;;;;8.97;1.40;;;10.00;1.00;;;;;;5275670;22;20618;-96
2024/04/17 05:24:53;;;;;;;4.07;1.10;;;10.00;1.00;;;;;;5277252;22;20363;-96
2024/04/17 05:27:11;;;;;;;7.80;1.47;;;10.00;1.00;;;;;;5316069;22;20265;-96
2024/04/17 05:29:28;;;;;;;8.60;1.50;;;10.00;1.00;;;;;;5277701;22;20261;-96
2024/04/17 05:31:47;;;;;;;8.83;1.90;;;9.90;1.00;;;;;;5273165;22;20282;-96
2024/04/17 05:34:04;;;;;;;8.53;1.30;;;9.90;1.00;;;;;;5272647;22;20350;-96
2024/04/17 05:36:21;;;;;;;12.73;1.67;;;9.90;1.00;;;;;;5273573;22;20265;-96
2024/04/17 05:38:39;;;;;;;8.87;2.47;;;9.80;1.00;;;;;;5272504;22;20334;-96
2024/04/17 05:40:57;;;;;;;12.00;2.20;;;9.80;1.00;;;;;;5274199;22;20337;-96
2024/04/17 05:43:20;;;;;;;13.57;2.13;;;9.80;1.00;;;;;;5275076;22;20644;-96
2024/04/17 05:45:38;;;;;;;11.43;1.60;;;9.80;1.00;;;;;;5315228;22;20218;-96
2024/04/17 05:47:55;;;;;;;11.00;1.70;;;9.80;1.00;;;;;;5276878;22;20273;-96
2024/04/17 05:50:13;;;;;;;8.87;1.50;;;9.80;1.00;;;;;;5316760;22;20300;-96
2024/04/17 05:52:31;;;;;;;13.03;2.00;;;9.80;1.00;;;;;;5279195;22;20292;-96
2024/04/17 05:54:48;;;;;;;7.23;1.60;;;9.80;1.00;;;;;;5278626;22;20355;-96
2024/04/17 05:57:06;;;;;;;6.47;1.77;;;9.70;1.00;;;;;;5277038;22;20274;-96
2024/04/17 05:59:24;;;;;;;10.90;1.97;;;9.80;1.00;;;;;;5274772;22;20286;-96
2024/04/17 06:01:43;;;;;;;9.50;2.07;;;9.70;1.00;;;;;;5274084;22;20492;-96
2024/04/17 06:04:00;;;;;;;16.37;3.43;;;9.70;1.00;;;;;;5275214;22;20675;-96
2024/04/17 06:06:24;;;;;;;10.73;1.97;;;9.70;1.00;;;;;;5275460;22;20265;-96
2024/04/17 06:08:42;;;;;;;9.43;2.10;;;9.70;1.00;;;;;;5273100;22;20261;-96
2024/04/17 06:10:59;;;;;;;9.60;2.03;;;9.70;1.00;;;;;;5274283;22;20261;-96
2024/04/17 06:13:17;;;;;;;12.27;1.83;;;9.70;1.00;;;;;;5274464;22;20258;-96
2024/04/17 06:15:37;;;;;;;8.83;1.77;;;9.70;1.00;;;;;;5274333;22;20386;-96
2024/04/17 06:17:57;;;;;;;8.07;1.47;;;9.60;1.00;;;;;;5276372;22;20754;-96
2024/04/17 06:20:15;;;;;;;20.70;1.50;;;9.60;1.00;;;;;;5275484;22;20297;-96
2024/04/17 06:22:33;;;;;;;10.60;1.73;;;9.60;1.00;;;;;;5276066;22;20648;-96
2024/04/17 06:24:51;;;;;;;9.07;1.43;;;9.60;1.00;;;;;;5274407;22;20344;-96
2024/04/17 06:27:08;;;;;;;8.37;1.20;;;9.50;1.00;;;;;;5274113;22;20786;-96
2024/04/17 06:29:28;;;;;;;11.10;1.97;;;9.60;1.00;;;;;;5274404;22;20266;-95
2024/04/17 06:31:46;;;;;;;12.07;2.67;;;9.50;1.00;;;;;;5275742;22;20265;-96
2024/04/17 06:34:06;;;;;;;9.70;1.37;;;9.50;1.00;;;;;;5278063;22;20274;-96
2024/04/17 06:36:24;;;;;;;17.10;2.67;;;9.60;1.00;;;;;;5316765;22;20226;-95
2024/04/17 06:38:41;;;;;;;10.17;1.53;;;9.60;1.00;;;;;;5274625;22;20342;-96
2024/04/17 06:41:00;;;;;;;13.10;1.70;;;9.50;1.00;;;;;;5274983;22;20582;-96
2024/04/17 06:43:17;;;;;;;8.57;1.93;;;9.30;1.00;;;;;;5312464;22;20263;-96
2024/04/17 06:45:38;;;;;;;3.50;0.77;;;9.00;1.00;;;;;;5273592;22;20329;-95
2024/04/17 06:48:01;;;;;;;5.03;1.10;;;8.80;1.00;;;;;;5310731;22;20341;-96
2024/04/17 06:50:22;;;;;;;8.13;0.93;;;8.60;1.00;;;;;;5272742;22;21193;-96
2024/04/17 06:52:58;;;;;;;2.23;0.70;;;8.70;1.00;;;;;;5273315;22;20266;-95
2024/04/17 06:55:15;;;;;;;4.73;0.87;;;8.80;1.00;;;;;;5274481;22;20326;-96
2024/04/17 06:57:33;;;;;;;5.43;1.13;;;8.90;1.00;;;;;;5272371;22;20275;-95
2024/04/17 06:59:50;;;;;;;2.43;0.77;;;9.00;1.00;;;;;;5309991;22;20222;-96
2024/04/17 07:02:08;;;;;;;1.93;0.63;;;9.10;1.00;;;;;;5310221;22;20264;-95
2024/04/17 07:04:25;;;;;;;4.27;0.87;;;9.10;1.00;;;;;;5310574;22;20276;-96
2024/04/17 07:06:42;;;;;;;5.30;1.20;;;9.10;1.00;;;;;;5273176;22;20329;-96
2024/04/17 07:09:01;;;;;;;5.83;1.10;;;9.00;1.00;;;;;;5272825;22;20779;-95
2024/04/17 07:11:18;;;;;;;4.07;1.00;;;9.10;1.00;;;;;;5272602;22;20609;-96
2024/04/17 07:13:35;;;;;;;5.50;0.90;;;9.20;1.00;;;;;;5272614;22;20273;-96
2024/04/17 07:15:55;;;;;;;2.07;0.80;;;9.30;1.00;;;;;;5273234;22;20330;-96
2024/04/17 07:18:15;;;;;;;4.23;0.90;;;9.30;1.00;;;;;;5272762;22;20336;-96
2024/04/17 07:20:33;;;;;;;6.20;1.10;;;9.40;1.00;;;;;;5273315;22;20264;-96
2024/04/17 07:22:54;;;;;;;10.73;1.20;;;9.40;1.00;;;;;;5275867;22;20385;-96
2024/04/17 07:25:16;;;;;;;10.93;1.03;;;9.40;1.00;;;;;;5276769;22;20270;-96
2024/04/17 07:27:34;;;;;;;7.60;1.50;;;9.50;1.00;;;;;;5274152;22;20854;-96
2024/04/17 07:30:00;;;;;;;5.23;1.00;;;9.60;1.00;;;;;;5273126;22;21024;-96
2024/04/17 07:32:17;;;;;;;6.20;1.03;;;9.70;1.00;;;;;;5272783;22;20338;-96
2024/04/17 07:34:34;;;;;;;10.10;1.50;;;9.70;1.00;;;;;;5272414;22;20269;-96
2024/04/17 07:36:52;;;;;;;4.60;1.07;;;9.70;1.00;;;;;;5272168;22;20274;-96
2024/04/17 07:39:12;;;;;;;6.87;1.27;;;9.80;1.00;;;;;;5274133;22;20325;-96
2024/04/17 07:41:30;;;;;;;10.93;1.57;;;9.90;1.00;;;;;;5272343;22;20337;-96
2024/04/17 07:43:47;;;;;;;5.40;1.43;;;9.90;1.00;;;;;;5272155;22;20266;-96
2024/04/17 07:46:04;;;;;;;6.53;1.30;;;9.80;1.00;;;;;;5271642;22;20750;-96
2024/04/17 07:48:22;;;;;;;4.53;1.10;;;9.80;1.00;;;;;;5272069;22;20328;-96
2024/04/17 07:50:39;;;;;;;6.37;1.03;;;9.70;1.00;;;;;;5279871;22;20269;-96
2024/04/17 07:52:56;;;;;;;5.77;0.90;;;9.50;1.00;;;;;;5278797;22;20310;-96
2024/04/17 07:55:14;;;;;;;3.33;0.93;;;9.30;1.00;;;;;;5272990;22;20270;-96
2024/04/17 07:57:32;;;;;;;8.03;1.23;;;9.20;1.00;;;;;;5273070;22;20307;-96
2024/04/17 07:59:49;;;;;;;4.53;0.80;;;9.20;1.00;;;;;;5274394;22;20270;-96
2024/04/17 08:02:06;;;;;;;5.73;1.13;;;9.20;1.00;;;;;;5278911;22;20333;-96
2024/04/17 08:04:24;;;;;;;3.97;1.13;;;9.40;1.00;;;;;;5314832;22;20281;-96
2024/04/17 08:06:41;;;;;;;6.70;1.00;;;9.40;1.00;;;;;;5326633;22;20272;-95
2024/04/17 08:08:59;;;;;;;6.50;0.83;;;9.50;1.00;;;;;;5290145;22;20298;-96
2024/04/17 08:11:19;;;;;;;6.00;1.07;;;9.70;1.00;;;;;;5287828;22;20255;-96
2024/04/17 08:13:53;;;;;;;4.23;0.70;;;9.70;1.00;;;;;;5320193;22;20327;-96
2024/04/17 08:25:41;;;;;;;11.07;1.20;;;10.00;1.00;;;;;;5242214;22;20331;-96
2024/04/17 09:09:48;;;;;;;2.63;0.80;;;11.20;1.00;;;;;;5267595;22;20789;-96
2024/04/17 09:12:07;;;;;;;6.93;1.50;;;11.20;1.00;;;;;;5317090;22;20256;-96
2024/04/17 09:14:25;;;;;;;4.77;0.67;;;11.20;1.00;;;;;;5317602;22;20263;-96
2024/04/17 09:16:45;;;;;;;1.47;0.53;;;11.20;1.00;;;;;;5319753;22;20249;-96
2024/04/17 09:19:03;;;;;;;2.70;0.50;;;11.20;1.00;;;;;;5318827;22;20268;-94
2024/04/17 09:21:21;;;;;;;1.93;0.60;;;11.20;1.00;;;;;;5316622;22;20333;-96
2024/04/17 09:23:38;;;;;;;2.33;0.50;;;11.30;1.00;;;;;;5315603;22;20262;-96
2024/04/17 09:25:59;;;;;;;5.93;0.77;;;11.30;1.00;;;;;;5316036;22;20606;-96
2024/04/17 09:28:18;;;;;;;2.10;0.50;;;11.40;1.00;;;;;;5319274;22;20334;-96
2024/04/17 09:30:36;;;;;;;3.70;0.83;;;11.40;1.00;;;;;;5319051;22;20256;-96
2024/04/17 09:33:08;;;;;;;6.50;0.90;;;11.50;1.00;;;;;;5324989;22;20247;-96
2024/04/17 09:55:18;;;;;;;9.47;0.80;;;11.90;1.00;;;;;;5227788;22;20324;-96
2024/04/17 09:57:36;;;;;;;1.90;0.60;;;12.00;1.00;;;;;;5190827;22;20304;-96
2024/04/17 09:59:56;;;;;;;2.37;0.70;;;12.00;1.00;;;;;;5190824;22;20816;-96
2024/04/17 10:02:20;;;;;;;3.67;0.90;;;12.00;1.00;;;;;;5190879;22;20260;-95
2024/04/17 10:04:39;;;;;;;7.13;1.57;;;12.00;1.00;;;;;;5194272;22;20271;-96
2024/04/17 10:07:00;;;;;;;9.63;1.77;;;12.10;1.00;;;;;;5230550;22;20291;-92
2024/04/17 10:09:21;;;;;;;7.33;0.67;;;12.10;1.00;;;;;;5229899;22;20274;-96
2024/04/17 10:11:43;;;;;;;4.37;1.10;;;12.10;1.00;;;;;;5192516;22;20344;-93
2024/04/17 10:14:02;;;;;;;7.33;0.67;;;12.10;1.00;;;;;;5229893;22;20296;-95
2024/04/17 10:16:19;;;;;;;2.17;0.80;;;12.20;1.00;;;;;;5192412;22;20271;-94
2024/04/17 10:18:37;;;;;;;8.50;0.90;;;12.20;1.00;;;;;;5230316;22;20652;-93
2024/04/17 10:20:55;;;;;;;2.20;0.60;;;12.20;1.00;;;;;;5233362;22;20276;-94
2024/04/17 10:23:15;;;;;;;1.93;0.53;;;12.00;1.00;;;;;;5234529;22;20218;-95
2024/04/17 10:25:32;;;;;;;2.00;0.67;;;11.80;1.00;;;;;;5196123;22;20698;-94
2024/04/17 10:27:50;;;;;;;1.00;0.50;;;11.50;1.00;;;;;;5195545;22;20259;-95
2024/04/17 10:30:13;;;;;;;4.00;0.83;;;11.30;1.00;;;;;;5194660;22;20340;-96
2024/04/17 10:32:32;;;;;;;3.63;0.67;;;11.00;1.00;;;;;;5228095;22;20343;-96
2024/04/17 10:34:53;;;;;;;2.50;0.47;;;10.80;1.00;;;;;;5194672;22;20271;-96
2024/04/17 10:37:11;;;;;;;5.87;1.00;;;10.80;1.00;;;;;;5158327;22;20340;-96
2024/04/17 10:39:29;;;;;;;1.57;0.60;;;10.70;1.00;;;;;;5193320;22;20268;-96
2024/04/17 10:41:47;;;;;;;3.93;0.80;;;10.70;1.00;;;;;;5192629;22;20357;-96
2024/04/17 10:44:04;;;;;;;2.43;1.17;;;10.60;1.00;;;;;;5193574;22;20314;-96
2024/04/17 10:46:22;;;;;;;3.60;1.10;;;10.60;1.00;;;;;;5195837;22;20337;-96
2024/04/17 10:48:47;;;;;;;2.67;0.80;;;10.60;1.00;;;;;;5164570;22;20291;-95
2024/04/17 10:51:04;;;;;;;2.53;0.93;;;10.60;1.00;;;;;;5196255;22;20683;-96
2024/04/17 10:53:23;;;;;;;2.87;1.10;;;10.60;1.00;;;;;;5191772;22;20279;-96
2024/04/17 10:55:40;;;;;;;3.53;0.90;;;10.50;1.00;;;;;;5193246;22;20321;-96
2024/04/17 10:58:02;;;;;;;7.33;0.97;;;10.60;1.00;;;;;;5230197;22;20295;-96
2024/04/17 11:00:19;;;;;;;4.87;0.80;;;10.60;1.00;;;;;;5158242;22;20541;-96
2024/04/17 11:02:37;;;;;;;6.97;1.60;;;10.50;1.00;;;;;;5195643;22;20448;-96
2024/04/17 11:04:54;;;;;;;2.57;0.80;;;10.60;1.00;;;;;;5203844;22;20555;-96
2024/04/17 11:07:15;;;;;;;3.00;0.73;;;10.60;1.00;;;;;;5205763;22;20275;-95
2024/04/17 11:09:43;;;;;;;4.07;1.10;;;10.60;1.00;;;;;;5209627;22;20279;-96
2024/04/17 11:12:25;;;;;;;3.77;1.10;;;10.60;1.00;;;;;;5248975;22;20288;-96
2024/04/17 11:35:14;;;;;;;2.07;1.00;;;9.90;1.00;;;;;;5282300;21;20319;-94
2024/04/17 11:37:35;;;;;;;1.93;0.60;;;9.60;1.00;;;;;;5336283;21;20276;-94
2024/04/17 11:40:05;;;;;;;1.80;0.70;;;9.40;1.00;;;;;;5337766;21;20297;-95
2024/04/17 11:42:36;;;;;;;5.00;0.70;;;9.10;1.00;;;;;;5338899;21;20264;-96
2024/04/17 11:45:01;;;;;;;1.70;0.70;;;9.00;1.00;;;;;;5338457;21;20301;-96
2024/04/17 11:47:28;;;;;;;1.60;0.77;;;9.00;1.00;;;;;;5340171;21;20253;-95
2024/04/17 11:49:48;;;;;;;4.43;0.67;;;9.10;1.00;;;;;;5375990;21;20296;-96
2024/04/17 11:52:12;;;;;;;1.40;0.70;;;9.10;1.00;;;;;;5334901;21;20263;-96
2024/04/17 11:57:17;;;;;;;1.50;0.90;;;8.40;1.00;;;;;;5375562;21;20251;-95
2024/04/17 11:59:35;;;;;;;1.10;0.87;;;8.40;1.00;;;;;;5330191;21;20265;-96
2024/04/17 12:02:00;;;;;;;2.53;0.97;;;8.40;1.00;;;;;;5375159;21;20244;-96
2024/04/17 12:07:00;;;;;;;1.27;0.77;;;8.30;1.00;;;;;;5376920;21;20248;-95
2024/04/17 12:09:20;;;;;;;1.00;0.53;;;8.50;1.00;;;;;;5338621;21;20331;-96
2024/04/17 12:33:04;;;;;;;3.30;1.00;;;9.70;1.00;;;;;;5256515;21;20335;-96
2024/04/17 12:57:07;;;;;;;2.50;0.60;;;10.20;1.00;;;;;;5345779;21;20330;-96
2024/04/17 12:59:28;;;;;;;3.43;0.80;;;10.20;1.00;;;;;;5339460;21;20360;-93
2024/04/17 13:02:00;;;;;;;3.23;1.40;;;10.20;1.00;;;;;;5317898;21;20312;-96
2024/04/17 13:04:18;;;;;;;0.83;0.70;;;10.20;1.00;;;;;;5321493;21;20342;-96
2024/04/17 13:06:35;;;;;;;4.13;1.00;;;10.00;1.00;;;;;;5365280;21;20276;-96
2024/04/17 13:08:58;;;;;;;1.37;0.60;;;10.00;1.00;;;;;;5375187;21;20255;-96
2024/04/17 14:35:30;;;;;;;2.77;0.97;;;11.20;1.00;;;;;;5115679;22;20323;-95
2024/04/17 16:03:00;;;;;;;5.68;1.05;;;11.40;1.00;;;;;;5261854;21;20299;-96
2024/04/17 16:05:17;;;;;;;2.17;0.83;;;11.40;1.00;;;;;;5321793;21;20277;-96
2024/04/17 16:07:40;;;;;;;1.17;0.70;;;11.40;1.00;;;;;;5320842;21;20265;-96
2024/04/17 16:24:52;;;;;;;7.00;1.40;;;10.80;1.00;;;;;;5226755;22;20771;-90
2024/04/17 16:27:09;;;;;;;2.17;0.70;;;10.90;1.00;;;;;;5156857;22;20307;-90
2024/04/17 16:29:27;;;;;;;1.50;0.70;;;10.80;1.00;;;;;;5228441;22;20267;-92
2024/04/17 16:31:46;;;;;;;4.57;0.70;;;10.60;1.00;;;;;;5192044;22;20309;-94
2024/04/17 16:34:03;;;;;;;1.03;0.60;;;10.60;1.00;;;;;;5191377;22;20332;-96
2024/04/17 16:36:20;;;;;;;7.70;0.70;;;10.80;1.00;;;;;;5226724;22;20275;-94
2024/04/17 16:38:38;;;;;;;3.70;0.80;;;11.00;1.00;;;;;;5191588;22;20824;-96
2024/04/17 16:40:55;;;;;;;1.70;0.60;;;11.20;1.00;;;;;;5228115;22;20274;-92
2024/04/17 16:43:15;;;;;;;3.00;0.70;;;11.30;1.00;;;;;;5191586;22;20785;-93
2024/04/17 16:45:33;;;;;;;3.97;0.93;;;11.30;1.00;;;;;;5198256;22;20336;-96
2024/04/17 16:47:50;;;;;;;1.87;0.73;;;11.20;1.00;;;;;;5230581;22;20266;-93
2024/04/17 16:50:08;;;;;;;2.95;0.82;;;11.00;1.00;;;;;;5191748;22;20354;-94
2024/04/17 16:52:26;;;;;;;4.23;0.60;;;10.90;1.00;;;;;;5191895;22;20308;-91
2024/04/17 16:54:43;;;;;;;3.73;0.70;;;10.90;1.00;;;;;;5191259;22;20338;-91
2024/04/17 16:57:00;;;;;;;2.70;0.67;;;10.80;1.00;;;;;;5191218;22;20774;-89
2024/04/17 16:59:18;;;;;;;1.77;0.70;;;10.40;1.00;;;;;;5228419;22;20342;-91
2024/04/17 17:01:36;;;;;;;3.27;0.77;;;10.30;1.00;;;;;;5191530;22;20335;-92
2024/04/17 17:03:59;;;;;;;1.13;0.70;;;10.20;1.00;;;;;;5156650;22;20343;-91
2024/04/17 17:06:16;;;;;;;0.83;0.50;;;10.30;1.00;;;;;;5191296;22;20275;-89
2024/04/17 17:08:34;;;;;;;3.70;0.80;;;10.30;1.00;;;;;;5156923;22;20306;-90
2024/04/17 17:10:53;;;;;;;1.40;0.57;;;10.30;1.00;;;;;;5191314;22;20283;-89
2024/04/17 17:13:16;;;;;;;2.70;0.60;;;10.30;1.00;;;;;;5228265;22;20304;-89
2024/04/17 17:19:55;;;;;;;3.43;0.70;;;10.50;1.00;;;;;;5048652;22;20307;-91
2024/04/17 17:25:57;;;;;;;5.57;1.00;;;10.60;1.00;;;;;;5155893;22;20272;-91
2024/04/17 17:28:27;;;;;;;2.80;0.97;;;10.70;1.00;;;;;;5191018;22;20314;-91
2024/04/17 17:31:06;;;;;;;4.50;1.00;;;10.70;1.00;;;;;;5191015;22;20293;-90
2024/04/17 17:33:24;;;;;;;3.03;0.97;;;10.70;1.00;;;;;;5191180;22;20267;-90
2024/04/17 17:35:42;;;;;;;2.20;0.80;;;10.80;1.00;;;;;;5228496;22;20279;-90
2024/04/17 17:38:03;;;;;;;1.43;0.60;;;10.70;1.00;;;;;;5227683;22;20583;-87
2024/04/17 17:41:30;;;;;;;;;;;;;;;;;;;;;
2024/04/17 17:44:03;;;;;;;2.33;0.80;;;10.50;1.00;;;;;;5145110;22;20303;-92
2024/04/17 17:46:21;;;;;;;1.90;0.80;;;10.30;1.00;;;;;;5193097;22;20271;-92
2024/04/17 17:48:42;;;;;;;1.70;0.60;;;10.00;1.00;;;;;;5193433;22;20340;-91
2024/04/17 17:50:59;;;;;;;2.87;0.83;;;9.90;1.00;;;;;;5192956;22;20332;-92